Time;durP1;ratioP1;P1;durP2;ratioP2;P2;SDS_P1;SDS_P2;PMS_P1;PMS_P2;Temp;Humidity;BMP_temperature;BMP_pressure;BME280_temperature;BME280_humidity;BME280_pressure;Samples;Min_cycle;Max_cycle;Signal;HPM_P1;HPM_P2
2021/04/28 00:00:29;;;;;;;7.07;5.47;;;9.30;68.40;;;;;;5109692;28;20649;-52
2021/04/28 00:02:55;;;;;;;7.43;5.03;;;9.30;68.90;;;;;;5125651;27;20208;-52
2021/04/28 00:05:22;;;;;;;5.90;5.40;;;9.20;70.00;;;;;;5109844;28;20183;-53
2021/04/28 00:07:48;;;;;;;5.80;5.20;;;9.20;69.60;;;;;;5110126;28;20184;-52
2021/04/28 00:10:16;;;;;;;6.07;5.50;;;9.30;69.60;;;;;;5109992;28;20598;-52
2021/04/28 00:12:43;;;;;;;8.77;5.38;;;9.20;69.40;;;;;;5126373;27;20674;-52
2021/04/28 00:15:13;;;;;;;6.07;5.30;;;9.30;69.90;;;;;;5109941;28;20678;-52
2021/04/28 00:17:39;;;;;;;8.63;5.72;;;9.30;70.00;;;;;;5109063;28;20584;-52
2021/04/28 00:20:10;;;;;;;7.93;5.70;;;9.30;70.10;;;;;;5109415;28;20194;-52
2021/04/28 00:22:36;;;;;;;7.55;6.07;;;8.70;69.80;;;;;;5109992;28;20196;-52
2021/04/28 00:25:07;;;;;;;7.88;5.20;;;8.70;70.50;;;;;;5109549;28;20573;-52
2021/04/28 00:27:33;;;;;;;6.63;4.90;;;9.10;71.60;;;;;;5109944;28;20176;-52
2021/04/28 00:29:58;;;;;;;6.37;5.60;;;8.90;71.10;;;;;;5109359;28;20196;-53
2021/04/28 00:32:24;;;;;;;6.17;5.03;;;8.90;71.30;;;;;;5110278;28;20750;-52
2021/04/28 00:34:50;;;;;;;6.23;4.90;;;9.00;71.80;;;;;;5109879;28;20530;-52
2021/04/28 00:37:15;;;;;;;5.60;4.57;;;8.80;72.00;;;;;;5109079;28;20203;-52
2021/04/28 00:39:41;;;;;;;7.90;5.80;;;8.90;73.00;;;;;;5102976;28;20752;-52
2021/04/28 00:42:07;;;;;;;5.40;4.90;;;8.90;73.40;;;;;;5109533;28;20481;-52
2021/04/28 00:44:33;;;;;;;7.22;6.10;;;8.80;73.30;;;;;;5109497;28;20199;-52
2021/04/28 00:46:59;;;;;;;7.43;6.10;;;8.80;73.40;;;;;;5109381;28;20187;-52
2021/04/28 00:49:24;;;;;;;7.70;6.17;;;8.90;73.80;;;;;;5109007;28;20183;-52
2021/04/28 00:51:50;;;;;;;5.70;5.20;;;8.80;73.90;;;;;;5107180;28;20219;-52
2021/04/28 00:54:17;;;;;;;6.03;5.43;;;8.30;73.60;;;;;;5100317;28;20180;-52
2021/04/28 00:56:43;;;;;;;7.68;5.40;;;8.80;73.70;;;;;;5109219;28;20973;-52
2021/04/28 00:59:11;;;;;;;7.10;6.20;;;8.70;74.10;;;;;;5108929;28;20187;-52
2021/04/28 01:01:37;;;;;;;6.68;5.32;;;8.90;74.30;;;;;;5109266;28;20453;-52
2021/04/28 01:04:04;;;;;;;6.13;5.30;;;8.50;74.60;;;;;;5108538;28;20203;-52
2021/04/28 01:06:30;;;;;;;6.47;5.30;;;8.50;74.80;;;;;;5109247;28;20428;-52
2021/04/28 01:08:57;;;;;;;7.03;5.90;;;8.00;74.20;;;;;;5108330;28;20187;-52
2021/04/28 01:11:25;;;;;;;9.05;5.97;;;8.50;74.80;;;;;;5110391;28;20191;-52
2021/04/28 01:13:51;;;;;;;5.85;5.18;;;8.40;74.60;;;;;;5107346;28;20610;-52
2021/04/28 01:16:16;;;;;;;8.50;6.60;;;8.80;75.30;;;;;;5108375;28;20168;-52
2021/04/28 01:18:42;;;;;;;6.07;5.47;;;8.50;74.90;;;;;;5108426;28;20320;-52
2021/04/28 01:21:08;;;;;;;7.37;6.03;;;8.60;75.20;;;;;;5108848;28;20180;-52
2021/04/28 01:23:33;;;;;;;8.93;5.77;;;8.60;75.10;;;;;;5108444;28;20227;-52
2021/04/28 01:26:01;;;;;;;8.37;6.00;;;8.50;74.90;;;;;;5108501;28;20217;-52
2021/04/28 01:28:27;;;;;;;6.57;5.68;;;8.60;74.90;;;;;;5108492;28;20581;-51
2021/04/28 01:30:55;;;;;;;6.78;6.10;;;8.50;75.20;;;;;;5108336;28;20210;-52
2021/04/28 01:33:33;;;;;;;7.47;5.70;;;8.30;75.30;;;;;;5109764;28;20200;-52
2021/04/28 01:36:00;;;;;;;6.30;5.70;;;8.50;75.60;;;;;;5100263;28;20266;-52
2021/04/28 01:38:33;;;;;;;7.05;5.15;;;8.20;76.20;;;;;;5108210;28;20211;-51
2021/04/28 01:40:59;;;;;;;6.93;6.28;;;8.30;78.70;;;;;;5109341;28;20207;-51
2021/04/28 01:43:26;;;;;;;6.55;5.50;;;8.50;76.80;;;;;;5107784;28;20203;-51
2021/04/28 01:45:54;;;;;;;6.30;5.30;;;8.10;76.40;;;;;;5108434;28;20172;-51
2021/04/28 01:48:19;;;;;;;7.22;6.20;;;8.20;77.00;;;;;;5108158;28;20188;-51
2021/04/28 01:50:46;;;;;;;6.27;5.67;;;8.30;77.10;;;;;;5107847;28;20767;-50
2021/04/28 01:53:16;;;;;;;6.45;5.85;;;8.20;77.20;;;;;;5107833;28;20731;-51
2021/04/28 01:55:42;;;;;;;7.05;6.35;;;8.40;76.80;;;;;;5110741;28;20230;-51
2021/04/28 01:58:08;;;;;;;6.95;5.88;;;8.40;76.20;;;;;;5107823;28;20219;-51
2021/04/28 02:00:35;;;;;;;7.53;6.03;;;8.40;76.70;;;;;;5107700;28;20214;-51
2021/04/28 02:03:01;;;;;;;6.93;6.22;;;8.30;76.70;;;;;;5107603;28;20234;-51
2021/04/28 02:05:27;;;;;;;6.90;6.30;;;8.40;77.30;;;;;;5107899;28;20182;-51
2021/04/28 02:07:52;;;;;;;6.93;6.23;;;8.10;77.10;;;;;;5107571;28;20190;-51
2021/04/28 02:10:18;;;;;;;8.10;6.20;;;8.10;77.30;;;;;;5108860;28;20827;-51
2021/04/28 02:12:47;;;;;;;8.40;6.63;;;8.10;77.50;;;;;;5104945;28;20200;-51
2021/04/28 02:15:18;;;;;;;8.40;6.03;;;7.80;77.40;;;;;;5107967;28;20474;-52
2021/04/28 02:17:44;;;;;;;6.60;5.88;;;8.00;78.00;;;;;;5107481;28;20212;-51
2021/04/28 02:20:15;;;;;;;6.50;5.80;;;8.10;77.80;;;;;;5107675;28;20713;-51
2021/04/28 02:22:41;;;;;;;8.13;6.95;;;8.10;78.70;;;;;;5108856;28;20191;-51
2021/04/28 02:25:09;;;;;;;10.10;6.45;;;8.10;78.20;;;;;;5108037;28;20179;-52
2021/04/28 02:27:35;;;;;;;6.78;5.75;;;7.90;78.00;;;;;;5107920;28;20182;-52
2021/04/28 02:30:04;;;;;;;7.30;6.03;;;8.30;78.20;;;;;;5099959;28;20263;-52
2021/04/28 02:32:33;;;;;;;8.00;5.80;;;8.00;78.80;;;;;;5107651;28;20211;-52
2021/04/28 02:34:59;;;;;;;6.40;5.80;;;8.20;79.10;;;;;;5107917;28;20191;-52
2021/04/28 02:37:29;;;;;;;9.20;6.05;;;7.90;78.50;;;;;;5108582;28;20200;-52
2021/04/28 02:40:13;;;;;;;10.13;6.40;;;8.00;79.60;;;;;;5106954;28;20171;-51
2021/04/28 02:42:40;;;;;;;7.35;5.78;;;8.00;79.40;;;;;;5101974;28;20621;-51
2021/04/28 02:45:12;;;;;;;6.95;5.72;;;8.00;80.00;;;;;;5108558;28;20183;-51
2021/04/28 02:47:39;;;;;;;8.43;7.40;;;7.90;79.90;;;;;;5097181;28;20183;-52
2021/04/28 02:50:07;;;;;;;7.35;5.65;;;8.00;80.20;;;;;;5108111;28;20271;-52
2021/04/28 02:52:34;;;;;;;6.88;6.18;;;7.80;80.70;;;;;;5107185;28;20208;-51
2021/04/28 02:55:00;;;;;;;6.10;5.50;;;7.90;80.50;;;;;;5108960;28;20240;-52
2021/04/28 02:57:26;;;;;;;8.00;6.97;;;7.90;80.10;;;;;;5107506;28;20600;-52
2021/04/28 02:59:53;;;;;;;9.03;5.83;;;7.80;80.00;;;;;;5107328;28;20183;-52
2021/04/28 03:02:19;;;;;;;10.88;6.78;;;7.90;80.00;;;;;;5107518;28;20488;-51
2021/04/28 03:04:46;;;;;;;7.00;6.28;;;7.80;80.30;;;;;;5105694;28;20179;-51
2021/04/28 03:07:13;;;;;;;8.63;6.32;;;7.70;81.00;;;;;;5106895;28;20332;-52
2021/04/28 03:09:43;;;;;;;7.80;6.80;;;7.70;82.00;;;;;;5107398;28;20183;-51
2021/04/28 03:12:11;;;;;;;9.90;6.05;;;7.50;82.30;;;;;;5104358;28;20231;-51
2021/04/28 03:14:37;;;;;;;9.07;7.07;;;7.60;82.60;;;;;;5107170;28;20176;-52
2021/04/28 03:17:03;;;;;;;6.63;6.00;;;7.50;82.20;;;;;;5106671;28;20621;-51
2021/04/28 03:19:33;;;;;;;7.40;6.43;;;7.80;81.90;;;;;;5110514;28;20175;-52
2021/04/28 03:22:00;;;;;;;9.45;7.05;;;8.00;81.50;;;;;;5111159;28;20230;-51
2021/04/28 03:24:26;;;;;;;10.20;6.35;;;8.00;81.80;;;;;;5109056;28;20538;-52
2021/04/28 03:26:53;;;;;;;7.60;6.80;;;7.90;82.00;;;;;;5110905;28;20213;-52
2021/04/28 03:29:19;;;;;;;7.82;7.05;;;7.80;82.60;;;;;;5110624;28;20266;-52
2021/04/28 03:31:45;;;;;;;9.25;7.32;;;7.70;82.90;;;;;;5110831;28;20234;-51
2021/04/28 03:34:11;;;;;;;8.93;6.87;;;7.60;83.20;;;;;;5111031;28;20175;-52
2021/04/28 03:36:37;;;;;;;7.30;6.27;;;7.70;83.10;;;;;;5108626;28;20199;-52
2021/04/28 03:39:04;;;;;;;8.10;6.03;;;7.90;83.50;;;;;;5104946;28;20804;-51
2021/04/28 03:41:30;;;;;;;6.90;6.20;;;7.50;83.60;;;;;;5110353;28;20179;-51
2021/04/28 03:43:56;;;;;;;6.77;6.07;;;7.60;84.10;;;;;;5110531;28;20187;-51
2021/04/28 03:46:21;;;;;;;8.53;7.17;;;7.50;84.00;;;;;;5110665;28;20206;-51
2021/04/28 03:48:48;;;;;;;9.30;6.70;;;7.50;83.90;;;;;;5109866;28;20229;-52
2021/04/28 03:51:14;;;;;;;10.00;6.78;;;7.30;84.40;;;;;;5110316;28;20187;-51
2021/04/28 03:53:39;;;;;;;7.40;6.70;;;7.50;84.60;;;;;;5109936;28;20207;-51
2021/04/28 03:56:05;;;;;;;9.10;7.27;;;7.50;84.90;;;;;;5110239;28;20452;-52
2021/04/28 03:58:31;;;;;;;11.95;6.95;;;7.40;84.70;;;;;;5108545;28;20237;-52
2021/04/28 04:00:56;;;;;;;7.27;6.57;;;7.00;84.50;;;;;;5109432;28;20207;-52
2021/04/28 04:03:22;;;;;;;9.03;6.80;;;7.60;85.10;;;;;;5109890;28;20656;-51
2021/04/28 04:05:50;;;;;;;8.50;6.87;;;7.50;85.80;;;;;;5110082;28;20180;-52
2021/04/28 04:08:16;;;;;;;7.95;6.55;;;7.40;85.90;;;;;;5112829;27;20441;-51
2021/04/28 04:10:41;;;;;;;8.73;7.68;;;7.40;86.40;;;;;;5108951;28;20561;-51
2021/04/28 04:13:07;;;;;;;10.43;7.17;;;7.10;86.30;;;;;;5103659;28;20207;-52
2021/04/28 04:15:32;;;;;;;8.93;6.80;;;7.30;86.90;;;;;;5110283;28;20198;-51
2021/04/28 04:17:58;;;;;;;8.97;7.33;;;7.10;87.90;;;;;;5108664;28;20306;-52
2021/04/28 04:20:24;;;;;;;10.10;6.90;;;7.00;87.70;;;;;;5109588;28;20274;-51
2021/04/28 04:22:50;;;;;;;11.10;7.87;;;7.20;87.70;;;;;;5109773;28;20253;-51
2021/04/28 04:25:16;;;;;;;7.50;6.75;;;7.30;87.70;;;;;;5109592;28;20180;-51
2021/04/28 04:27:42;;;;;;;8.90;7.30;;;7.20;88.00;;;;;;5108582;28;20236;-51
2021/04/28 04:30:09;;;;;;;10.10;7.78;;;7.30;89.00;;;;;;5106552;28;20932;-59
2021/04/28 04:32:36;;;;;;;8.75;7.57;;;7.40;88.20;;;;;;5103335;28;21081;-59
2021/04/28 04:35:05;;;;;;;8.80;7.40;;;7.20;88.60;;;;;;5109459;28;20646;-59
2021/04/28 04:37:31;;;;;;;11.48;7.75;;;7.30;88.80;;;;;;5098566;28;20663;-59
2021/04/28 04:39:57;;;;;;;12.07;7.77;;;7.30;88.60;;;;;;5103722;28;20198;-59
2021/04/28 04:42:23;;;;;;;8.00;7.20;;;7.60;88.40;;;;;;5102514;28;20453;-50
2021/04/28 04:44:50;;;;;;;8.40;7.50;;;7.70;87.90;;;;;;4977910;28;20525;-50
2021/04/28 04:47:15;;;;;;;9.45;7.60;;;7.50;87.30;;;;;;4967777;28;20511;-50
2021/04/28 04:49:42;;;;;;;12.80;8.00;;;7.60;88.30;;;;;;5031139;28;20622;-52
2021/04/28 04:52:08;;;;;;;9.18;7.10;;;7.50;88.20;;;;;;5049051;28;20443;-51
2021/04/28 04:54:34;;;;;;;11.40;8.45;;;7.60;88.40;;;;;;5043126;28;20222;-51
2021/04/28 04:57:01;;;;;;;10.17;7.60;;;7.50;89.40;;;;;;5044729;28;20206;-52
2021/04/28 04:59:27;;;;;;;10.82;7.88;;;7.20;88.10;;;;;;5045431;28;20261;-52
2021/04/28 05:01:55;;;;;;;11.13;8.67;;;7.70;88.70;;;;;;5042895;28;20316;-53
2021/04/28 05:04:21;;;;;;;8.90;7.57;;;7.70;88.20;;;;;;5041645;28;20224;-52
2021/04/28 05:06:47;;;;;;;10.47;8.10;;;7.10;87.30;;;;;;5044948;28;20217;-52
2021/04/28 05:09:13;;;;;;;10.10;7.93;;;7.70;87.60;;;;;;5043877;28;20239;-52
2021/04/28 05:11:38;;;;;;;9.20;8.17;;;7.60;87.20;;;;;;5038018;28;20185;-52
2021/04/28 05:14:04;;;;;;;9.73;7.90;;;7.80;87.80;;;;;;5040902;28;20526;-52
2021/04/28 05:16:33;;;;;;;8.63;7.73;;;8.10;87.40;;;;;;5056207;28;20194;-55
2021/04/28 05:18:58;;;;;;;10.88;7.55;;;8.00;87.00;;;;;;5042634;28;20667;-55
2021/04/28 05:21:24;;;;;;;8.70;7.70;;;8.10;86.00;;;;;;5047217;28;20199;-54
2021/04/28 05:23:50;;;;;;;13.00;8.87;;;8.00;85.40;;;;;;5045354;28;20209;-56
2021/04/28 05:26:15;;;;;;;9.03;8.03;;;8.00;85.50;;;;;;5044102;28;20178;-54
2021/04/28 05:28:41;;;;;;;12.43;7.47;;;8.30;86.30;;;;;;5045718;28;20243;-54
2021/04/28 05:31:07;;;;;;;16.10;8.93;;;8.30;86.20;;;;;;5047302;28;20204;-55
2021/04/28 05:33:32;;;;;;;9.57;8.20;;;8.40;86.40;;;;;;5045433;28;20217;-55
2021/04/28 05:35:58;;;;;;;10.93;7.70;;;8.70;85.70;;;;;;5045855;28;20190;-55
2021/04/28 05:38:23;;;;;;;11.07;7.87;;;8.30;84.90;;;;;;5046194;28;20271;-55
2021/04/28 05:40:49;;;;;;;13.87;9.80;;;8.60;85.00;;;;;;5044777;28;20695;-56
2021/04/28 05:43:15;;;;;;;10.40;8.57;;;8.90;84.10;;;;;;5041539;28;20252;-56
2021/04/28 05:45:43;;;;;;;10.17;7.93;;;8.70;83.40;;;;;;5038272;28;20209;-56
2021/04/28 05:48:14;;;;;;;10.98;8.40;;;8.90;83.60;;;;;;5040836;28;20186;-51
2021/04/28 05:50:41;;;;;;;11.20;8.35;;;9.30;83.30;;;;;;5041248;28;20189;-55
2021/04/28 05:53:07;;;;;;;11.70;8.85;;;9.30;82.40;;;;;;5043880;28;20559;-53
2021/04/28 05:55:33;;;;;;;13.18;9.55;;;9.40;82.20;;;;;;5032059;28;20849;-53
2021/04/28 05:57:59;;;;;;;11.80;8.30;;;9.50;81.30;;;;;;5042782;28;20194;-54
2021/04/28 06:00:25;;;;;;;11.93;8.00;;;9.80;81.10;;;;;;5040782;28;20816;-52
2021/04/28 06:02:51;;;;;;;12.30;8.48;;;9.90;79.90;;;;;;5045243;28;20300;-50
2021/04/28 06:05:16;;;;;;;12.57;8.83;;;10.20;78.20;;;;;;5044516;28;20258;-50
2021/04/28 06:07:45;;;;;;;11.60;8.57;;;10.30;78.30;;;;;;5048099;28;20191;-51
2021/04/28 06:10:12;;;;;;;13.07;8.73;;;10.70;76.60;;;;;;5045368;28;20620;-50
2021/04/28 06:12:38;;;;;;;9.80;8.90;;;11.10;75.40;;;;;;5047317;28;20208;-49
2021/04/28 06:15:04;;;;;;;9.93;8.97;;;11.40;73.60;;;;;;5044759;28;20206;-52
2021/04/28 06:17:31;;;;;;;10.95;8.50;;;11.50;72.30;;;;;;5044460;28;20808;-52
2021/04/28 06:19:57;;;;;;;11.57;8.30;;;11.90;71.00;;;;;;5044642;28;20190;-51
2021/04/28 06:22:22;;;;;;;11.20;8.53;;;12.10;70.40;;;;;;5042801;28;20590;-51
2021/04/28 06:24:48;;;;;;;13.30;9.20;;;12.00;69.80;;;;;;5046722;28;20191;-51
2021/04/28 06:27:14;;;;;;;14.50;9.20;;;11.80;69.40;;;;;;5042832;28;20653;-51
2021/04/28 06:29:39;;;;;;;18.07;9.70;;;12.00;69.60;;;;;;5042936;28;20185;-50
2021/04/28 06:32:06;;;;;;;14.40;9.00;;;12.20;69.60;;;;;;5039219;28;20670;-50
2021/04/28 06:34:31;;;;;;;15.32;10.98;;;12.00;68.90;;;;;;5041532;28;20696;-51
2021/04/28 06:36:57;;;;;;;12.83;9.27;;;12.20;68.80;;;;;;5044217;28;20292;-51
2021/04/28 06:39:22;;;;;;;11.30;9.50;;;12.80;68.70;;;;;;5042230;28;20628;-51
2021/04/28 06:41:48;;;;;;;11.20;8.17;;;13.10;67.00;;;;;;5042711;28;20425;-51
2021/04/28 06:44:14;;;;;;;10.47;9.47;;;13.90;64.30;;;;;;5040981;28;20280;-51
2021/04/28 06:46:39;;;;;;;13.57;8.97;;;14.50;62.20;;;;;;5043713;28;20193;-53
2021/04/28 06:49:05;;;;;;;12.07;8.87;;;14.80;60.50;;;;;;5044975;28;20271;-52
2021/04/28 06:51:31;;;;;;;10.70;9.10;;;15.30;59.10;;;;;;5043325;28;20188;-52
2021/04/28 06:54:00;;;;;;;13.97;10.00;;;15.80;57.60;;;;;;5046462;28;20204;-52
2021/04/28 06:56:27;;;;;;;10.27;9.18;;;16.40;56.30;;;;;;5050513;28;20216;-53
2021/04/28 06:58:52;;;;;;;16.52;11.95;;;17.30;55.60;;;;;;5048707;28;20185;-51
2021/04/28 07:01:19;;;;;;;14.40;9.63;;;19.10;51.70;;;;;;5051350;28;20608;-51
2021/04/28 07:03:44;;;;;;;12.67;9.80;;;21.00;48.80;;;;;;5049134;28;20235;-51
2021/04/28 07:06:13;;;;;;;10.90;9.37;;;22.50;44.60;;;;;;5046559;28;20435;-51
2021/04/28 07:08:39;;;;;;;10.20;9.10;;;23.70;41.70;;;;;;5047553;28;20238;-52
2021/04/28 07:11:05;;;;;;;12.50;11.17;;;24.90;39.80;;;;;;5048522;28;20965;-52
2021/04/28 07:13:31;;;;;;;15.23;11.10;;;25.60;37.60;;;;;;5046742;28;20459;-52
2021/04/28 07:15:57;;;;;;;12.30;11.20;;;26.60;36.60;;;;;;5049722;28;20444;-52
2021/04/28 07:18:22;;;;;;;11.73;10.50;;;27.90;35.20;;;;;;5048771;28;20244;-51
2021/04/28 07:20:48;;;;;;;12.13;11.10;;;28.20;34.10;;;;;;5049744;28;20555;-52
2021/04/28 07:23:14;;;;;;;11.30;10.30;;;29.60;31.60;;;;;;5048650;28;20564;-53
2021/04/28 07:25:39;;;;;;;12.90;11.60;;;29.80;31.10;;;;;;5049366;28;20327;-53
2021/04/28 07:28:05;;;;;;;11.03;10.03;;;30.40;29.90;;;;;;5047738;28;20257;-52
2021/04/28 07:30:32;;;;;;;12.60;11.40;;;30.20;30.00;;;;;;5043500;28;20200;-53
2021/04/28 07:32:57;;;;;;;13.07;10.50;;;28.40;30.00;;;;;;5042144;28;20455;-53
2021/04/28 07:35:23;;;;;;;13.63;11.00;;;29.60;30.20;;;;;;5049667;28;20441;-53
2021/04/28 07:37:50;;;;;;;13.30;11.90;;;30.20;29.70;;;;;;5044579;28;20212;-52
2021/04/28 07:40:20;;;;;;;13.17;11.30;;;31.50;28.80;;;;;;5049693;28;20481;-52
2021/04/28 07:42:46;;;;;;;11.90;10.80;;;32.20;28.20;;;;;;5046664;28;20512;-55
2021/04/28 07:45:13;;;;;;;13.17;11.87;;;31.10;27.60;;;;;;5046378;28;20436;-55
2021/04/28 07:47:39;;;;;;;13.10;11.50;;;32.30;27.60;;;;;;5049089;28;20443;-54
2021/04/28 07:50:06;;;;;;;12.20;11.00;;;33.10;27.30;;;;;;5046128;28;20439;-54
2021/04/28 07:52:31;;;;;;;14.10;11.90;;;32.30;27.20;;;;;;5045183;28;20260;-52
2021/04/28 07:54:57;;;;;;;12.20;10.97;;;30.50;28.00;;;;;;5044801;28;20977;-54
2021/04/28 07:57:22;;;;;;;12.20;11.00;;;28.90;29.60;;;;;;5046414;28;20216;-53
2021/04/28 07:59:48;;;;;;;13.60;11.10;;;28.60;30.20;;;;;;5046809;28;20187;-52
2021/04/28 08:02:14;;;;;;;12.00;10.80;;;28.90;30.60;;;;;;5044963;28;20220;-53
2021/04/28 08:04:40;;;;;;;12.17;10.50;;;30.20;29.70;;;;;;5047060;28;20208;-52
2021/04/28 08:07:07;;;;;;;10.93;9.93;;;30.80;28.80;;;;;;5043508;28;20567;-52
2021/04/28 08:09:33;;;;;;;12.30;10.77;;;30.00;30.40;;;;;;5048156;28;20981;-53
2021/04/28 08:11:59;;;;;;;11.80;10.60;;;30.90;29.30;;;;;;5045625;28;20495;-51
2021/04/28 08:14:25;;;;;;;16.33;14.53;;;31.00;28.70;;;;;;5043790;28;20452;-51
2021/04/28 08:16:50;;;;;;;13.20;11.23;;;30.80;28.50;;;;;;5047021;28;20450;-54
2021/04/28 08:19:16;;;;;;;14.80;12.07;;;30.00;29.40;;;;;;5046470;28;20439;-53
2021/04/28 08:21:42;;;;;;;12.63;11.43;;;28.20;30.50;;;;;;5049871;28;20355;-51
2021/04/28 08:24:07;;;;;;;13.47;11.23;;;30.00;30.00;;;;;;5047711;28;20188;-49
2021/04/28 08:26:33;;;;;;;12.73;11.53;;;31.60;28.90;;;;;;5047624;28;20185;-51
2021/04/28 08:28:59;;;;;;;14.83;11.73;;;31.40;28.50;;;;;;5049054;28;20264;-50
2021/04/28 08:31:24;;;;;;;11.50;10.40;;;29.20;29.70;;;;;;5044065;28;20196;-51
2021/04/28 08:33:50;;;;;;;11.87;10.70;;;30.70;29.70;;;;;;5048234;28;20653;-53
2021/04/28 08:36:16;;;;;;;13.67;10.27;;;32.20;28.20;;;;;;5045926;28;20940;-53
2021/04/28 08:38:42;;;;;;;12.87;11.67;;;30.90;27.70;;;;;;5047112;28;20477;-53
2021/04/28 08:41:10;;;;;;;12.97;11.77;;;29.90;29.50;;;;;;5046954;28;20204;-53
2021/04/28 08:43:36;;;;;;;12.03;10.80;;;31.90;28.10;;;;;;5047895;28;20759;-53
2021/04/28 08:46:03;;;;;;;15.43;11.70;;;32.30;27.30;;;;;;5047465;28;20875;-53
2021/04/28 08:48:29;;;;;;;13.20;11.80;;;31.50;27.60;;;;;;5047286;28;20930;-54
2021/04/28 08:50:55;;;;;;;13.83;12.23;;;32.10;27.50;;;;;;5047926;28;21175;-54
2021/04/28 08:53:21;;;;;;;13.43;11.23;;;33.20;27.50;;;;;;5048074;28;20459;-53
2021/04/28 08:55:47;;;;;;;11.83;10.63;;;33.40;26.50;;;;;;5047302;28;20498;-54
2021/04/28 08:58:14;;;;;;;12.27;10.90;;;32.90;27.00;;;;;;5046117;28;20675;-54
2021/04/28 09:00:40;;;;;;;12.53;10.80;;;33.30;26.70;;;;;;5043906;28;20177;-53
2021/04/28 09:03:06;;;;;;;12.70;11.20;;;32.70;26.80;;;;;;5040009;28;20489;-53
2021/04/28 09:05:33;;;;;;;13.07;11.80;;;33.10;26.40;;;;;;5048844;28;20893;-54
2021/04/28 09:08:00;;;;;;;12.67;10.60;;;33.10;26.50;;;;;;5047043;28;20185;-54
2021/04/28 09:10:30;;;;;;;12.83;11.63;;;30.80;27.00;;;;;;5048932;28;20448;-54
2021/04/28 09:13:04;;;;;;;13.67;11.07;;;32.10;27.60;;;;;;5042097;28;21053;-55
2021/04/28 09:15:32;;;;;;;11.63;10.53;;;32.80;26.90;;;;;;5041374;28;20551;-55
2021/04/28 09:17:58;;;;;;;11.87;10.77;;;32.00;26.20;;;;;;5047303;28;20499;-54
2021/04/28 09:20:36;;;;;;;14.10;10.87;;;30.60;27.60;;;;;;5044988;28;20464;-54
2021/04/28 09:23:35;;;;;;;11.60;10.50;;;32.30;26.90;;;;;;5047003;28;20431;-55
2021/04/28 09:26:03;;;;;;;12.10;10.80;;;31.80;27.30;;;;;;5048128;28;20194;-54
2021/04/28 09:28:34;;;;;;;11.80;10.60;;;32.00;26.70;;;;;;5047331;28;20436;-55
2021/04/28 09:31:06;;;;;;;13.03;10.70;;;32.80;26.90;;;;;;5045021;28;20494;-52
2021/04/28 09:33:54;;;;;;;11.13;10.07;;;31.50;26.30;;;;;;5049580;28;20833;-50
2021/04/28 09:36:25;;;;;;;11.30;10.23;;;31.00;27.40;;;;;;5040918;28;20984;-52
2021/04/28 09:39:02;;;;;;;11.47;10.37;;;31.10;27.10;;;;;;5047651;28;20475;-52
2021/04/28 09:41:42;;;;;;;12.10;10.50;;;31.00;26.80;;;;;;5047089;28;20455;-50
2021/04/28 09:44:30;;;;;;;12.07;10.90;;;29.40;27.80;;;;;;5045002;28;20431;-52
2021/04/28 09:46:56;;;;;;;12.40;11.10;;;29.20;28.30;;;;;;5046331;28;20444;-53
2021/04/28 09:49:23;;;;;;;11.33;10.13;;;29.40;28.40;;;;;;5046876;28;20435;-52
2021/04/28 09:51:54;;;;;;;13.50;11.13;;;29.90;28.70;;;;;;5046586;28;20472;-52
2021/04/28 09:54:26;;;;;;;11.30;10.20;;;29.50;28.30;;;;;;5046500;28;20437;-53
2021/04/28 09:56:52;;;;;;;10.80;9.83;;;29.70;28.30;;;;;;5040430;28;20793;-55
2021/04/28 09:59:19;;;;;;;11.90;9.37;;;29.50;27.90;;;;;;5046340;28;20796;-55
2021/04/28 10:01:45;;;;;;;10.83;9.83;;;29.90;27.50;;;;;;5046940;28;20495;-54
2021/04/28 10:04:26;;;;;;;11.00;9.80;;;30.30;26.90;;;;;;5045933;28;20790;-53
2021/04/28 10:06:51;;;;;;;9.40;8.03;;;29.20;27.00;;;;;;5043812;28;20189;-53
2021/04/28 10:09:36;;;;;;;9.57;8.50;;;28.50;27.20;;;;;;5043606;28;20428;-51
2021/04/28 10:12:05;;;;;;;8.87;7.83;;;28.30;27.50;;;;;;5040711;28;20209;-53
2021/04/28 10:14:33;;;;;;;9.53;8.63;;;26.80;28.60;;;;;;5044212;28;20481;-50
2021/04/28 10:17:01;;;;;;;12.57;11.27;;;26.10;29.80;;;;;;5045494;28;20455;-51
2021/04/28 10:19:26;;;;;;;10.73;9.73;;;25.50;31.80;;;;;;5045804;28;20803;-51
2021/04/28 10:21:58;;;;;;;11.83;10.53;;;25.60;32.20;;;;;;5046120;28;20460;-52
2021/04/28 10:24:24;;;;;;;13.13;10.67;;;25.70;32.50;;;;;;5047240;28;20453;-54
2021/04/28 10:26:50;;;;;;;13.68;11.10;;;25.50;32.80;;;;;;5042901;28;20542;-55
2021/04/28 10:29:20;;;;;;;15.50;11.20;;;25.80;32.20;;;;;;5043894;28;20183;-56
2021/04/28 10:31:50;;;;;;;15.03;10.30;;;25.90;32.00;;;;;;5046181;28;20871;-56
2021/04/28 10:34:30;;;;;;;11.43;10.33;;;26.50;31.00;;;;;;5044816;28;20444;-56
2021/04/28 10:36:57;;;;;;;11.70;10.30;;;26.40;30.50;;;;;;5046029;28;20941;-56
2021/04/28 10:39:25;;;;;;;11.97;10.57;;;26.80;30.60;;;;;;5040546;28;20441;-56
2021/04/28 10:41:56;;;;;;;11.63;10.30;;;26.70;29.70;;;;;;5038052;28;20510;-56
2021/04/28 10:44:31;;;;;;;10.50;9.40;;;26.20;30.40;;;;;;5043507;28;21003;-55
2021/04/28 10:47:27;;;;;;;11.50;9.83;;;27.00;29.60;;;;;;5046083;28;20451;-55
2021/04/28 10:50:07;;;;;;;12.83;9.53;;;26.80;29.40;;;;;;5044115;28;20466;-55
2021/04/28 10:52:56;;;;;;;11.30;9.70;;;26.10;29.80;;;;;;5045724;28;20825;-55
2021/04/28 10:55:37;;;;;;;9.70;8.13;;;26.30;29.90;;;;;;5046920;28;20490;-56
2021/04/28 10:58:04;;;;;;;8.70;7.80;;;26.40;30.10;;;;;;5043006;28;20467;-55
2021/04/28 11:00:30;;;;;;;10.77;9.23;;;26.30;29.90;;;;;;5051198;28;20468;-55
2021/04/28 11:02:56;;;;;;;8.63;7.73;;;26.50;29.20;;;;;;5042785;28;20460;-53
2021/04/28 11:05:28;;;;;;;8.70;7.80;;;26.30;29.10;;;;;;5045123;28;20613;-52
2021/04/28 11:07:56;;;;;;;8.60;7.80;;;26.20;29.20;;;;;;5046675;28;20512;-52
2021/04/28 11:10:28;;;;;;;10.43;7.70;;;26.50;28.80;;;;;;5044732;28;20537;-52
2021/04/28 11:13:06;;;;;;;8.80;8.00;;;26.50;28.90;;;;;;5034917;28;20455;-52
2021/04/28 11:15:44;;;;;;;10.03;7.80;;;26.30;29.10;;;;;;5062263;28;20985;-52
2021/04/28 11:18:36;;;;;;;9.57;7.60;;;26.50;28.90;;;;;;5044876;28;20466;-52
2021/04/28 11:21:17;;;;;;;12.80;9.27;;;25.80;29.10;;;;;;5043733;28;20822;-51
2021/04/28 11:24:08;;;;;;;8.37;7.50;;;25.60;29.30;;;;;;5043218;28;20498;-52
2021/04/28 11:26:49;;;;;;;8.10;7.00;;;26.00;29.00;;;;;;5042680;28;20527;-52
2021/04/28 11:29:14;;;;;;;8.67;7.43;;;26.70;28.40;;;;;;5042685;28;20185;-52
2021/04/28 11:31:51;;;;;;;9.20;7.70;;;26.40;28.20;;;;;;5041298;28;20438;-51
2021/04/28 11:34:34;;;;;;;8.20;7.30;;;27.30;28.00;;;;;;5049937;28;20472;-51
2021/04/28 11:37:09;;;;;;;8.83;7.77;;;28.20;27.10;;;;;;5044836;28;20984;-54
2021/04/28 11:39:43;;;;;;;8.90;7.40;;;28.40;26.70;;;;;;5047638;28;20485;-54
2021/04/28 11:42:09;;;;;;;7.83;7.13;;;28.80;26.40;;;;;;5043788;28;20450;-53
2021/04/28 11:44:38;;;;;;;8.83;7.93;;;28.00;26.40;;;;;;5049136;28;20433;-53
2021/04/28 11:47:16;;;;;;;7.53;6.80;;;27.60;26.80;;;;;;5049711;28;20191;-52
2021/04/28 11:49:50;;;;;;;7.87;7.07;;;27.50;27.10;;;;;;5050810;28;20495;-54
2021/04/28 11:52:17;;;;;;;7.70;7.00;;;27.80;27.50;;;;;;5056111;28;20458;-53
2021/04/28 11:54:43;;;;;;;9.00;8.10;;;27.70;27.10;;;;;;5047635;28;20467;-51
2021/04/28 11:57:11;;;;;;;8.13;7.37;;;27.20;27.20;;;;;;5047220;28;20706;-54
2021/04/28 11:59:38;;;;;;;8.53;7.20;;;26.90;27.90;;;;;;5049764;28;20502;-54
2021/04/28 12:02:11;;;;;;;7.57;6.57;;;26.80;28.00;;;;;;5049900;28;20451;-52
2021/04/28 12:04:48;;;;;;;6.20;5.60;;;26.70;27.60;;;;;;5046542;28;20435;-53
2021/04/28 12:07:16;;;;;;;6.90;6.27;;;26.40;27.50;;;;;;5049484;28;20446;-51
2021/04/28 12:09:49;;;;;;;6.80;6.10;;;26.10;27.80;;;;;;5051251;28;20437;-51
2021/04/28 12:12:20;;;;;;;5.40;4.90;;;26.30;28.30;;;;;;5049018;28;20499;-54
2021/04/28 12:14:54;;;;;;;6.83;6.13;;;26.00;27.00;;;;;;5064523;28;20436;-52
2021/04/28 12:17:22;;;;;;;9.70;7.87;;;26.10;28.40;;;;;;5050599;28;20944;-51
2021/04/28 12:19:54;;;;;;;7.93;7.13;;;26.00;28.70;;;;;;5049662;28;20450;-53
2021/04/28 12:22:20;;;;;;;8.23;6.70;;;26.00;29.20;;;;;;5041997;28;20529;-53
2021/04/28 12:24:48;;;;;;;7.17;6.47;;;25.90;28.80;;;;;;5049578;28;20437;-53
2021/04/28 12:27:23;;;;;;;8.63;7.73;;;25.90;29.00;;;;;;5049378;28;20437;-53
2021/04/28 12:29:55;;;;;;;10.33;7.57;;;25.90;28.90;;;;;;5049258;28;20527;-53
2021/04/28 12:32:31;;;;;;;8.33;7.53;;;25.80;29.50;;;;;;5044274;28;21054;-54
2021/04/28 12:35:10;;;;;;;8.93;7.80;;;25.50;29.20;;;;;;5049829;28;20436;-52
2021/04/28 12:37:36;;;;;;;9.10;8.20;;;25.00;29.90;;;;;;5064301;28;20988;-53
2021/04/28 12:40:05;;;;;;;10.53;8.87;;;24.80;30.00;;;;;;5049351;28;20959;-54
2021/04/28 12:42:33;;;;;;;8.80;7.90;;;24.20;30.20;;;;;;5044092;28;21003;-56
2021/04/28 12:45:03;;;;;;;9.30;7.97;;;24.30;30.90;;;;;;5040774;28;20648;-55
2021/04/28 12:47:32;;;;;;;10.53;7.90;;;24.50;30.40;;;;;;5049494;28;20448;-53